Airfield :
LOGIN :

Register | Disclaimer

   EN    FR    IT 

 










Legend :    VFR   Marginal VFR   IFR   Intensive IFR   Very Intensive IFR
Visi :
Ceiling :
>= 8 km
>= 3000ft
5 to 8 km
1000 to 3000 ft
1500m to 5 km
500 to 1000 ft
800 to 1500m
200 to 500 ft
< 800m
< 200 ft
Symbols :   Thunderstorms  Fog  Heavy snow  Heavy precipitations  Wind > 20 kt
SIGMETs :     Misc.  Thunderstorms  Icing  Turbulence  Mountain Waves  Volcanic Ashes






- Airport Elevation : 162 ft
- IATA code : BOD


LFBD - Bordeaux / Merignac

CURRENT METAR :
  • 032230Z AUTO 36004KT 320V050 CAVOK 17/15 Q1020 TEMPO 4000 -SHRA BKN060TCU

EXPIRED METARs :
  • 032200Z AUTO 34006KT CAVOK 18/15 Q1020 TEMPO 32015G25KT 4000 -SHRA BKN060TCU
  • 032130Z AUTO VRB03KT CAVOK 18/15 Q1020 TEMPO 32015G25KT 4000 -SHRA BKN060TCU
  • 032100Z AUTO 36005KT 330V060 9999 ///CB 18/15 Q1020 TEMPO 32015G25KT 4000 -SHRA
  • 032030Z AUTO 30007KT 270V350 9999 FEW037/// BKN110/// BKN140/// ///CB 18/15 Q1021 TEMPO 32015G25KT 4000 -SHRA

TAF AMD TAF LFBD
Valid from the 03 at 19:00 until the 05 at 00:00 UTC


031905Z 0319/0424 32010KT CAVOK TX27/0415Z TN16/0405Z
PROB40
TEMPO 0319/0324 4000 -SHRA BKN060TCU
PROB30
TEMPO 0319/0323 32015G25KT -TSRA BKN060CB
TEMPO 0400/0410 VRB02KT
PROB40
TEMPO 0408/0410 4000 -SHRA BKN060TCU
ATIS : +33 5 57 92 81 04



MET'MAP, your aeronautical weather chart ! - Copyright ORBIFLY December 2007 - Disclaimer

ORBIFLY MET'MAP TEAM :

Programming & Development : Alexandra Zaïnal
Original concept : Baudouin d'Aumeries
Technical & hardware support : Manuel Goepfert
Assistance : Marc-Olivier Méhu




SOURCES & CREDITS :

   NOAA